Time;durP1;ratioP1;P1;durP2;ratioP2;P2;SDS_P1;SDS_P2;PMS_P1;PMS_P2;Temp;Humidity;BMP_temperature;BMP_pressure;BME280_temperature;BME280_humidity;BME280_pressure;Samples;Min_cycle;Max_cycle;Signal;HPM_P1;HPM_P2
2023/08/23 00:00:14;;;;;;;7.35;5.05;;;;;;;29.83;41.11;99001.88;4845402;29;20189;-90
2023/08/23 00:02:41;;;;;;;8.85;5.45;;;;;;;29.79;41.46;99002.50;4841964;29;20196;-90
2023/08/23 00:05:07;;;;;;;8.48;4.95;;;;;;;29.78;41.26;99011.59;4828170;29;20189;-89
2023/08/23 00:07:34;;;;;;;12.60;5.30;;;;;;;29.72;41.70;99009.72;4829264;29;20601;-89
2023/08/23 00:10:03;;;;;;;8.55;5.32;;;;;;;29.68;41.96;99000.38;4829156;29;20269;-90
2023/08/23 00:12:30;;;;;;;8.40;5.32;;;;;;;29.60;41.76;99012.19;4835453;29;20269;-90
2023/08/23 00:14:57;;;;;;;13.68;5.20;;;;;;;29.63;42.19;99014.50;4840971;29;20196;-90
2023/08/23 00:17:24;;;;;;;7.22;4.50;;;;;;;29.57;42.25;99011.75;4845330;29;20341;-90
2023/08/23 00:19:50;;;;;;;15.23;6.00;;;;;;;29.58;41.94;99013.44;4830561;29;20193;-90
2023/08/23 00:22:17;;;;;;;8.52;5.68;;;;;;;29.59;42.18;99015.94;4840723;29;20197;-90
2023/08/23 00:24:43;;;;;;;13.45;6.72;;;;;;;29.59;41.71;99018.63;4839818;29;20249;-90
2023/08/23 00:27:12;;;;;;;8.10;5.47;;;;;;;29.58;42.02;99016.16;4844897;29;20193;-89
2023/08/23 00:29:39;;;;;;;9.07;5.97;;;;;;;29.58;41.98;99022.38;4837631;29;20276;-90
2023/08/23 00:32:05;;;;;;;12.00;6.57;;;;;;;29.56;42.11;99024.44;4835065;29;20622;-90
2023/08/23 00:34:32;;;;;;;14.25;5.25;;;;;;;29.52;42.29;99019.66;4828197;29;20185;-90
2023/08/23 00:36:59;;;;;;;8.40;5.10;;;;;;;29.45;42.52;99016.94;4815737;29;20201;-90
2023/08/23 00:39:26;;;;;;;14.70;6.38;;;;;;;29.40;43.05;99024.84;4835863;29;20237;-90
2023/08/23 00:41:52;;;;;;;9.65;5.57;;;;;;;29.39;42.77;99027.72;4825381;29;20198;-90
2023/08/23 00:44:19;;;;;;;12.50;6.50;;;;;;;29.34;43.97;99025.63;4835033;29;20205;-90
2023/08/23 00:46:46;;;;;;;10.68;6.35;;;;;;;29.26;44.21;99031.22;4844577;29;20200;-90
2023/08/23 00:49:13;;;;;;;10.90;6.05;;;;;;;29.18;44.48;99028.66;4838499;29;20197;-90
2023/08/23 00:51:41;;;;;;;10.15;6.60;;;;;;;29.04;44.34;99024.22;4834031;29;20214;-89
2023/08/23 00:54:09;;;;;;;16.02;6.70;;;;;;;28.97;44.72;99031.47;4816933;29;20185;-90
2023/08/23 00:56:37;;;;;;;11.07;6.55;;;;;;;28.98;44.33;99033.16;4844210;29;20197;-90
2023/08/23 00:59:06;;;;;;;9.98;6.55;;;;;;;28.91;45.15;99034.97;4842046;29;20293;-90
2023/08/23 01:01:33;;;;;;;9.35;6.63;;;;;;;28.82;45.15;99036.19;4844360;29;20200;-90
2023/08/23 01:03:59;;;;;;;10.77;6.00;;;;;;;28.77;45.34;99038.63;4844412;29;20189;-90
2023/08/23 01:07:02;;;;;;;8.80;6.05;;;;;;;28.71;45.42;99039.41;4828580;29;20627;-90
2023/08/23 01:09:37;;;;;;;12.27;6.60;;;;;;;28.64;45.77;99034.81;4827842;29;20342;-90
2023/08/23 01:12:34;;;;;;;10.02;6.00;;;;;;;28.58;45.57;99037.44;4830808;29;20659;-90
2023/08/23 01:15:12;;;;;;;10.35;6.32;;;;;;;28.50;45.63;99041.13;4814577;29;20206;-90
2023/08/23 01:17:43;;;;;;;10.88;6.38;;;;;;;28.42;45.74;99041.28;4825920;29;20556;-90
2023/08/23 01:20:14;;;;;;;10.38;6.53;;;;;;;28.35;45.92;99043.09;4838595;29;20212;-90
2023/08/23 01:22:50;;;;;;;8.77;6.18;;;;;;;28.28;46.17;99039.50;4811391;29;20219;-90
2023/08/23 01:25:20;;;;;;;10.27;6.15;;;;;;;28.20;46.71;99031.56;4827888;29;20204;-90
2023/08/23 01:27:46;;;;;;;8.70;5.70;;;;;;;28.13;46.51;99038.75;4844000;29;20257;-90
2023/08/23 01:30:15;;;;;;;12.02;5.90;;;;;;;28.11;46.30;99037.28;4842699;29;20310;-90
2023/08/23 01:32:49;;;;;;;10.98;6.90;;;;;;;28.09;46.80;99033.97;4825673;29;20189;-90
2023/08/23 01:36:04;;;;;;;10.13;6.28;;;;;;;28.00;47.12;99031.38;4839078;29;20259;-90
2023/08/23 01:38:30;;;;;;;8.55;6.10;;;;;;;27.95;46.97;99028.44;4815510;29;20229;-90
2023/08/23 01:40:57;;;;;;;14.00;6.78;;;;;;;27.92;46.71;99028.81;4843157;29;20197;-90
2023/08/23 01:43:24;;;;;;;11.88;5.97;;;;;;;27.88;47.11;99032.91;4843148;29;20207;-89
2023/08/23 01:45:50;;;;;;;9.80;6.07;;;;;;;27.88;47.26;99026.72;4843261;29;20193;-90
2023/08/23 01:48:17;;;;;;;8.27;6.40;;;;;;;27.84;47.43;99022.72;4843641;29;20620;-90
2023/08/23 01:50:44;;;;;;;10.13;6.18;;;;;;;27.80;47.71;99024.16;4824697;29;20197;-90
2023/08/23 01:53:11;;;;;;;8.93;5.70;;;;;;;27.79;47.76;99027.84;4825308;29;20625;-90
2023/08/23 01:55:36;;;;;;;9.13;6.40;;;;;;;27.81;47.66;99025.78;4840079;29;20640;-90
2023/08/23 01:58:03;;;;;;;9.82;6.80;;;;;;;27.79;47.66;99022.47;4843464;29;20209;-90
2023/08/23 02:00:28;;;;;;;10.23;6.47;;;;;;;27.78;47.04;99027.00;4835508;29;20193;-90
2023/08/23 02:02:56;;;;;;;10.65;6.10;;;;;;;27.76;47.09;99021.00;4824529;29;20193;-90
2023/08/23 02:05:23;;;;;;;10.45;6.28;;;;;;;27.81;46.89;99023.94;4824996;29;20193;-90
2023/08/23 02:07:48;;;;;;;13.52;6.68;;;;;;;27.83;46.45;99016.50;4842649;29;20173;-90
2023/08/23 02:10:15;;;;;;;13.32;6.38;;;;;;;27.88;46.43;99019.44;4842380;29;20278;-89
2023/08/23 02:12:42;;;;;;;8.95;6.13;;;;;;;27.89;46.03;99022.97;4827363;29;20708;-90
2023/08/23 02:15:08;;;;;;;14.38;6.40;;;;;;;27.94;46.31;99024.06;4842748;29;20177;-90
2023/08/23 02:17:35;;;;;;;10.15;6.35;;;;;;;28.00;45.97;99026.00;4827212;29;20216;-90
2023/08/23 02:20:02;;;;;;;9.98;6.43;;;;;;;28.01;45.96;99016.03;4827229;29;20357;-90
2023/08/23 02:22:29;;;;;;;10.80;7.15;;;;;;;28.04;46.15;99013.81;4809133;29;20251;-90
2023/08/23 02:24:54;;;;;;;10.48;6.53;;;;;;;28.06;46.44;99024.41;4824931;29;20204;-90
2023/08/23 02:27:21;;;;;;;11.05;6.32;;;;;;;28.01;46.44;99032.22;4824901;29;20190;-90
2023/08/23 02:29:47;;;;;;;9.88;6.10;;;;;;;27.97;46.05;99029.06;4808872;29;20189;-90
2023/08/23 02:32:14;;;;;;;7.95;6.03;;;;;;;27.93;45.92;99018.88;4819961;29;20259;-90
2023/08/23 02:34:41;;;;;;;11.18;6.05;;;;;;;27.86;45.87;99028.72;4824987;29;20182;-90
2023/08/23 02:37:06;;;;;;;11.50;5.90;;;;;;;27.81;45.92;99023.09;4823204;29;20188;-90
2023/08/23 02:39:32;;;;;;;12.57;6.40;;;;;;;27.73;46.04;99025.91;4842358;29;20241;-90
2023/08/23 02:41:59;;;;;;;8.88;5.80;;;;;;;27.67;46.13;99024.84;4815427;29;20201;-90
2023/08/23 02:44:25;;;;;;;9.13;6.05;;;;;;;27.64;46.70;99035.16;4811866;29;20195;-90
2023/08/23 02:46:52;;;;;;;13.52;7.35;;;;;;;27.62;46.26;99026.44;4842959;29;20610;-90
2023/08/23 02:49:18;;;;;;;9.55;5.82;;;;;;;27.56;46.93;99025.34;4842936;29;20181;-90
2023/08/23 02:51:45;;;;;;;10.15;6.30;;;;;;;27.49;47.01;99018.22;4832267;29;20665;-90
2023/08/23 02:54:12;;;;;;;10.98;6.90;;;;;;;27.40;47.59;99029.13;4824796;29;20269;-90
2023/08/23 02:56:38;;;;;;;10.32;6.65;;;;;;;27.28;47.97;99027.09;4829520;29;20528;-90
2023/08/23 02:59:05;;;;;;;12.20;6.88;;;;;;;27.23;48.12;99021.41;4842684;29;20673;-90
2023/08/23 03:01:32;;;;;;;9.82;6.15;;;;;;;27.17;48.40;99032.94;4816616;29;20643;-90
2023/08/23 03:03:58;;;;;;;16.27;5.82;;;;;;;27.10;48.24;99027.47;4825182;29;20182;-90
2023/08/23 03:06:25;;;;;;;12.45;6.57;;;;;;;27.09;48.30;99028.50;4824707;29;20221;-90
2023/08/23 03:08:50;;;;;;;12.80;6.85;;;;;;;27.06;48.73;99025.34;4824842;29;20202;-90
2023/08/23 03:11:16;;;;;;;10.98;6.72;;;;;;;26.98;48.84;99033.53;4822518;29;20194;-90
2023/08/23 03:13:43;;;;;;;10.77;6.68;;;;;;;26.95;48.81;99034.72;4827484;29;20253;-90
2023/08/23 03:16:09;;;;;;;10.98;6.43;;;;;;;26.85;49.30;99028.81;4836877;29;20198;-90
2023/08/23 03:18:36;;;;;;;10.85;7.20;;;;;;;26.78;49.86;99035.97;4824945;29;20212;-90
2023/08/23 03:21:02;;;;;;;10.38;7.18;;;;;;;26.71;49.67;99029.59;4808060;29;20197;-90
2023/08/23 03:23:29;;;;;;;11.68;6.70;;;;;;;26.66;49.72;99029.31;4824416;29;20186;-90
2023/08/23 03:25:56;;;;;;;11.85;7.30;;;;;;;26.62;49.72;99030.72;4820793;29;20193;-90
2023/08/23 03:28:22;;;;;;;10.83;7.10;;;;;;;26.62;49.86;99030.72;4842484;29;20173;-90
2023/08/23 03:30:48;;;;;;;13.95;6.82;;;;;;;26.61;49.84;99037.13;4822992;29;20197;-90
2023/08/23 03:33:15;;;;;;;14.88;7.50;;;;;;;26.56;49.96;99029.63;4824489;29;20238;-89
2023/08/23 03:35:41;;;;;;;10.20;6.43;;;;;;;26.54;49.97;99026.28;4826503;29;20628;-90
2023/08/23 03:38:08;;;;;;;11.88;7.60;;;;;;;26.48;50.17;99028.84;4826323;29;20304;-90
2023/08/23 03:40:38;;;;;;;10.80;6.43;;;;;;;26.45;50.50;99030.06;4831492;29;20238;-89
2023/08/23 03:43:05;;;;;;;11.38;6.60;;;;;;;26.43;50.46;99028.56;4824780;29;20280;-90
2023/08/23 03:45:33;;;;;;;13.35;7.00;;;;;;;26.42;50.63;99027.72;4808098;29;20297;-90
2023/08/23 03:48:01;;;;;;;11.90;6.45;;;;;;;26.42;50.87;99032.28;4842198;29;20189;-90
2023/08/23 03:50:27;;;;;;;10.30;6.83;;;;;;;26.31;50.86;99035.44;4816192;29;20204;-90
2023/08/23 03:52:54;;;;;;;10.40;6.32;;;;;;;26.30;51.01;99033.75;4823259;29;20186;-90
2023/08/23 03:55:19;;;;;;;11.50;6.75;;;;;;;26.29;51.27;99026.69;4824231;29;20193;-90
2023/08/23 03:57:46;;;;;;;12.45;7.38;;;;;;;26.31;51.40;99025.50;4824277;29;20290;-90
2023/08/23 04:00:16;;;;;;;10.03;6.47;;;;;;;26.26;51.46;99032.47;4824697;29;20196;-90
2023/08/23 04:02:43;;;;;;;19.38;7.32;;;;;;;26.21;51.62;99031.13;4842135;29;20207;-90
2023/08/23 04:05:11;;;;;;;10.03;6.47;;;;;;;26.25;51.60;99031.63;4816124;29;20258;-90
2023/08/23 04:07:39;;;;;;;11.45;7.45;;;;;;;26.33;51.50;99044.97;4809345;29;20182;-90
2023/08/23 04:10:06;;;;;;;10.30;6.65;;;;;;;26.34;51.32;99045.78;4844380;29;20199;-90
2023/08/23 04:12:32;;;;;;;10.88;6.47;;;;;;;26.34;51.30;99053.84;4840461;29;20221;-90
2023/08/23 04:14:58;;;;;;;14.70;6.70;;;;;;;26.36;51.38;99051.84;4845640;29;20185;-90
2023/08/23 04:17:24;;;;;;;11.03;7.23;;;;;;;26.39;51.19;99054.97;4829166;29;20212;-90
2023/08/23 04:19:51;;;;;;;13.25;7.47;;;;;;;26.44;51.38;99041.81;4814980;29;20609;-90
2023/08/23 04:22:18;;;;;;;16.05;7.28;;;;;;;26.41;51.70;99049.44;4826771;29;20198;-90
2023/08/23 04:24:43;;;;;;;13.73;6.80;;;;;;;26.46;51.69;99044.34;4810989;29;20260;-90
2023/08/23 04:27:10;;;;;;;12.27;6.65;;;;;;;26.48;51.77;99048.53;4823063;29;20197;-90
2023/08/23 04:29:36;;;;;;;15.30;7.85;;;;;;;26.51;52.14;99050.84;4826372;29;20236;-90
2023/08/23 04:32:02;;;;;;;11.43;6.60;;;;;;;26.56;52.11;99050.28;4813228;29;20201;-89
2023/08/23 04:34:29;;;;;;;9.75;6.35;;;;;;;26.60;52.28;99046.19;4826605;29;20564;-90
2023/08/23 04:36:56;;;;;;;12.23;7.10;;;;;;;26.69;52.14;99053.16;4827372;29;20277;-90
2023/08/23 04:39:21;;;;;;;11.48;7.32;;;;;;;26.78;52.09;99055.59;4826953;29;20216;-90
2023/08/23 04:41:48;;;;;;;13.93;7.10;;;;;;;26.94;51.75;99059.16;4832790;29;20202;-90
2023/08/23 04:44:14;;;;;;;13.65;7.63;;;;;;;27.07;51.60;99054.75;4826918;29;20246;-90
2023/08/23 04:46:41;;;;;;;12.32;7.00;;;;;;;27.26;51.59;99054.16;4810656;29;20190;-90
2023/08/23 04:49:08;;;;;;;9.85;6.47;;;;;;;27.52;50.71;99042.06;4824357;29;20193;-90
2023/08/23 04:51:34;;;;;;;14.25;7.35;;;;;;;27.77;50.81;99054.16;4826483;29;20209;-90
2023/08/23 04:54:01;;;;;;;13.30;5.82;;;;;;;28.07;49.56;99055.72;4827065;29;20271;-90
2023/08/23 04:56:28;;;;;;;12.38;6.60;;;;;;;28.31;48.47;99055.28;4810776;29;20195;-90
2023/08/23 04:58:54;;;;;;;8.85;5.13;;;;;;;28.47;48.07;99055.00;4844426;29;20560;-90
2023/08/23 05:01:21;;;;;;;10.43;5.82;;;;;;;28.71;47.65;99051.06;4817693;29;20194;-90
2023/08/23 05:03:46;;;;;;;8.95;5.72;;;;;;;28.90;47.08;99052.19;4826313;29;20264;-90
2023/08/23 05:06:12;;;;;;;7.80;5.35;;;;;;;28.99;46.13;99045.59;4826371;29;20186;-90
2023/08/23 05:08:40;;;;;;;10.52;5.53;;;;;;;29.00;46.74;99049.97;4826324;29;20559;-90
2023/08/23 05:11:07;;;;;;;8.57;5.53;;;;;;;29.19;46.24;99041.13;4826142;29;20198;-89
2023/08/23 05:13:33;;;;;;;10.10;5.25;;;;;;;29.26;46.47;99043.88;4828395;29;20260;-90
2023/08/23 05:16:00;;;;;;;9.40;5.80;;;;;;;29.44;46.20;99045.00;4828394;29;20189;-90
2023/08/23 05:18:27;;;;;;;15.30;6.78;;;;;;;29.63;45.31;99046.06;4828418;29;20300;-90
2023/08/23 05:20:55;;;;;;;10.85;5.32;;;;;;;29.72;45.06;99042.97;4839587;29;20667;-90
2023/08/23 05:23:22;;;;;;;7.93;5.28;;;;;;;29.81;44.94;99046.34;4826062;29;20193;-90
2023/08/23 05:25:51;;;;;;;8.23;5.15;;;;;;;29.95;44.75;99049.91;4830347;29;20200;-90
2023/08/23 05:28:30;;;;;;;9.85;5.30;;;;;;;30.12;44.10;99045.75;4839822;29;20185;-90
2023/08/23 05:30:57;;;;;;;10.13;5.55;;;;;;;30.17;44.09;99048.66;4827079;29;20197;-90
2023/08/23 05:33:23;;;;;;;10.25;5.82;;;;;;;30.25;43.95;99040.34;4828322;29;20289;-90
2023/08/23 05:35:53;;;;;;;9.60;5.82;;;;;;;30.32;42.83;99038.50;4824330;29;20197;-89
2023/08/23 05:38:23;;;;;;;8.25;5.28;;;;;;;30.23;43.53;99037.03;4837049;29;20205;-90
2023/08/23 05:40:51;;;;;;;9.88;5.80;;;;;;;30.35;43.74;99035.34;4843368;29;20229;-90
2023/08/23 05:43:18;;;;;;;8.48;5.75;;;;;;;30.40;43.68;99033.72;4843846;29;20189;-90
2023/08/23 05:45:44;;;;;;;8.15;5.28;;;;;;;30.51;43.33;99026.00;4832615;29;20182;-90
2023/08/23 05:48:12;;;;;;;9.57;5.78;;;;;;;30.69;43.01;99031.56;4825669;29;20216;-90
2023/08/23 05:50:39;;;;;;;9.88;5.70;;;;;;;30.85;42.49;99036.53;4825450;29;20200;-90
2023/08/23 05:53:09;;;;;;;8.23;5.75;;;;;;;30.85;42.25;99031.97;4825639;29;20205;-90
2023/08/23 05:55:37;;;;;;;12.82;7.40;;;;;;;30.80;41.74;99022.81;4835440;29;20258;-89
2023/08/23 05:58:04;;;;;;;10.20;5.13;;;;;;;30.90;41.99;99029.44;4844153;29;20237;-90
2023/08/23 06:00:31;;;;;;;8.07;5.63;;;;;;;30.94;41.47;99041.56;4826480;29;20223;-90
2023/08/23 06:02:59;;;;;;;9.00;5.80;;;;;;;30.97;41.51;99040.28;4809334;29;20193;-89
2023/08/23 06:05:25;;;;;;;7.82;4.95;;;;;;;30.95;41.82;99037.78;4825149;29;20186;-90
2023/08/23 06:07:51;;;;;;;9.18;5.63;;;;;;;31.01;41.92;99036.94;4825492;29;20185;-90
2023/08/23 06:10:19;;;;;;;9.45;5.95;;;;;;;31.14;41.43;99040.63;4840687;29;20189;-89
2023/08/23 06:12:44;;;;;;;8.43;5.25;;;;;;;31.11;42.19;99043.75;4825724;29;20196;-89
2023/08/23 06:15:10;;;;;;;9.93;6.05;;;;;;;31.29;41.88;99039.31;4828897;29;20280;-89
2023/08/23 06:17:36;;;;;;;9.93;6.30;;;;;;;31.41;41.21;99032.19;4825556;29;20201;-89
2023/08/23 06:20:04;;;;;;;8.10;5.80;;;;;;;31.60;41.01;99041.28;4837580;29;20727;-89
2023/08/23 06:22:31;;;;;;;10.57;5.72;;;;;;;31.71;41.05;99037.88;4825060;29;20247;-90
2023/08/23 06:24:58;;;;;;;10.88;6.40;;;;;;;32.03;40.32;99041.44;4825115;29;20593;-90
2023/08/23 06:27:25;;;;;;;10.35;5.97;;;;;;;32.33;40.30;99047.03;4825434;29;20186;-90
2023/08/23 06:29:52;;;;;;;13.50;6.07;;;;;;;32.70;40.04;99043.38;4840990;29;20185;-90
2023/08/23 06:32:19;;;;;;;9.50;6.18;;;;;;;32.90;38.27;99046.72;4842014;29;20192;-89
2023/08/23 06:34:44;;;;;;;9.52;6.50;;;;;;;33.11;37.92;99043.56;4826978;29;20688;-89
2023/08/23 06:37:11;;;;;;;7.47;5.60;;;;;;;33.20;37.84;99044.09;4841147;29;20255;-89
2023/08/23 06:39:37;;;;;;;10.80;6.45;;;;;;;33.52;37.43;99044.72;4841032;29;20208;-89
2023/08/23 06:42:02;;;;;;;9.02;6.05;;;;;;;33.68;37.08;99039.50;4825494;29;20256;-87
2023/08/23 06:44:28;;;;;;;13.65;5.97;;;;;;;33.74;36.27;99046.72;4841149;29;20246;-89
2023/08/23 06:46:53;;;;;;;8.63;5.95;;;;;;;33.72;36.52;99043.41;4841255;29;20213;-90
2023/08/23 06:49:20;;;;;;;8.48;5.72;;;;;;;33.96;36.21;99045.13;4841406;29;20189;-89
2023/08/23 06:51:46;;;;;;;11.15;6.53;;;;;;;34.01;35.74;99037.09;4826630;29;20231;-90
2023/08/23 06:54:13;;;;;;;8.07;5.72;;;;;;;34.09;35.31;99041.41;4843304;29;20272;-89
2023/08/23 06:56:40;;;;;;;8.43;5.45;;;;;;;34.29;35.21;99041.06;4843047;29;20177;-89
2023/08/23 06:59:06;;;;;;;9.40;5.72;;;;;;;34.19;35.13;99044.38;4842672;29;20234;-89
2023/08/23 07:01:32;;;;;;;9.32;5.32;;;;;;;34.38;35.61;99045.94;4826565;29;20268;-89
2023/08/23 07:03:59;;;;;;;9.02;5.95;;;;;;;34.66;34.91;99039.00;4826675;29;20620;-89
2023/08/23 07:06:24;;;;;;;9.65;5.68;;;;;;;34.99;34.45;99044.63;4826461;29;20193;-90
2023/08/23 07:08:51;;;;;;;8.75;6.18;;;;;;;35.04;34.02;99037.38;4842401;29;20532;-89
2023/08/23 07:11:17;;;;;;;10.18;6.30;;;;;;;34.80;33.33;99034.97;4842595;29;20193;-89
2023/08/23 07:13:44;;;;;;;16.77;6.43;;;;;;;34.66;34.25;99033.53;4826403;29;20580;-89
2023/08/23 07:16:10;;;;;;;9.77;5.32;;;;;;;34.83;33.33;99039.94;4842484;29;20196;-89
2023/08/23 07:18:37;;;;;;;11.23;6.18;;;;;;;34.80;33.67;99038.50;4826677;29;20206;-89
2023/08/23 07:21:03;;;;;;;12.07;6.57;;;;;;;35.08;33.91;99029.59;4826360;29;20196;-89
2023/08/23 07:23:30;;;;;;;8.02;5.25;;;;;;;35.28;33.56;99035.47;4831660;29;20199;-89
2023/08/23 07:25:56;;;;;;;9.40;4.95;;;;;;;35.48;32.42;99035.06;4823402;29;20281;-89
2023/08/23 07:28:23;;;;;;;8.85;5.25;;;;;;;35.39;33.02;99029.16;4808221;29;20185;-89
2023/08/23 07:30:49;;;;;;;7.55;4.70;;;;;;;35.63;32.18;99033.47;4824301;29;20189;-89
2023/08/23 07:33:15;;;;;;;6.18;4.75;;;;;;;36.00;32.48;99027.56;4824810;29;20210;-89
2023/08/23 07:35:41;;;;;;;9.55;5.20;;;;;;;36.22;31.31;99033.97;4824262;29;20627;-89
2023/08/23 07:38:07;;;;;;;8.43;4.85;;;;;;;36.34;31.84;99027.38;4824110;29;20201;-89
2023/08/23 07:40:35;;;;;;;7.90;4.50;;;;;;;36.03;30.81;99027.09;4808066;29;20270;-91
2023/08/23 07:43:00;;;;;;;8.00;5.10;;;;;;;35.89;31.78;99020.28;4826255;29;20661;-89
2023/08/23 07:45:26;;;;;;;6.97;5.28;;;;;;;36.08;30.79;99028.03;4827624;29;20276;-90
2023/08/23 07:47:51;;;;;;;11.95;5.45;;;;;;;36.18;31.16;99021.91;4827339;29;20190;-89
2023/08/23 07:50:16;;;;;;;9.13;5.80;;;;;;;35.91;31.86;99013.50;4821075;29;20228;-89
2023/08/23 07:52:42;;;;;;;9.32;5.47;;;;;;;36.24;31.08;99010.00;4826569;29;20190;-88
2023/08/23 07:55:08;;;;;;;8.13;5.50;;;;;;;36.41;31.20;99020.88;4845463;29;20575;-88
2023/08/23 07:57:33;;;;;;;7.00;5.47;;;;;;;36.53;30.54;99017.00;4829521;29;20200;-89
2023/08/23 07:59:59;;;;;;;7.35;5.10;;;;;;;36.74;30.42;99021.69;4829604;29;20223;-89
2023/08/23 08:02:25;;;;;;;7.18;5.43;;;;;;;36.77;30.42;99023.06;4829209;29;20181;-90
2023/08/23 08:04:51;;;;;;;7.45;4.82;;;;;;;36.86;30.00;99024.31;4829022;29;20185;-90
2023/08/23 08:07:16;;;;;;;8.98;4.50;;;;;;;37.20;30.14;99017.69;4829117;29;20189;-89
2023/08/23 08:09:42;;;;;;;6.65;4.60;;;;;;;37.50;29.62;99014.50;4845446;29;20628;-89
2023/08/23 08:12:07;;;;;;;8.35;4.55;;;;;;;37.76;29.38;99019.16;4829476;29;20546;-89
2023/08/23 08:14:32;;;;;;;7.60;4.35;;;;;;;37.88;28.32;99022.56;4845401;29;20253;-89
2023/08/23 08:16:58;;;;;;;7.70;4.47;;;;;;;37.93;28.21;99008.94;4833520;29;20619;-89
2023/08/23 08:19:24;;;;;;;5.63;4.13;;;;;;;38.18;27.82;99007.50;4811601;29;20194;-89
2023/08/23 08:21:49;;;;;;;9.38;4.75;;;;;;;38.38;27.72;99004.94;4837180;29;20181;-89
2023/08/23 08:24:14;;;;;;;5.22;4.07;;;;;;;38.64;28.26;99007.56;4822608;29;20189;-89
2023/08/23 08:26:40;;;;;;;9.00;4.35;;;;;;;38.80;27.38;99002.19;4828600;29;20262;-89
2023/08/23 08:29:05;;;;;;;6.45;3.97;;;;;;;38.97;26.89;98995.41;4845423;29;20189;-89
2023/08/23 08:31:32;;;;;;;5.88;3.50;;;;;;;39.02;26.28;98992.69;4836552;29;20547;-90
2023/08/23 08:33:59;;;;;;;6.15;2.95;;;;;;;39.07;26.56;98992.75;4828117;29;20254;-90
2023/08/23 08:36:25;;;;;;;5.25;3.42;;;;;;;39.36;26.02;98997.78;4844934;29;20612;-90
2023/08/23 08:38:51;;;;;;;10.55;4.15;;;;;;;39.28;26.66;98986.22;4818235;29;20217;-90
2023/08/23 08:41:16;;;;;;;6.55;3.58;;;;;;;39.14;26.46;98993.31;4826001;29;20274;-89
2023/08/23 08:43:42;;;;;;;6.05;3.70;;;;;;;39.36;26.46;98984.09;4810373;29;20679;-89
2023/08/23 08:46:07;;;;;;;7.22;4.18;;;;;;;39.72;24.94;98969.34;4817064;29;20181;-90
2023/08/23 08:48:33;;;;;;;5.68;3.90;;;;;;;39.61;25.89;98981.38;4828188;29;20177;-89
2023/08/23 08:51:00;;;;;;;5.93;3.15;;;;;;;39.70;26.05;98975.09;4832400;29;20197;-90
2023/08/23 08:53:32;;;;;;;9.40;3.63;;;;;;;39.71;25.32;98984.16;4841758;29;20181;-88
2023/08/23 08:55:58;;;;;;;5.07;3.47;;;;;;;39.72;25.17;98975.66;4826107;29;20192;-89
2023/08/23 08:58:25;;;;;;;5.35;3.17;;;;;;;39.76;25.25;98975.94;4818708;29;20248;-86
2023/08/23 09:00:53;;;;;;;5.32;3.33;;;;;;;39.66;25.30;98973.19;4828005;29;20194;-88
2023/08/23 09:03:19;;;;;;;7.00;3.60;;;;;;;39.98;25.22;98972.91;4832120;29;20221;-89
2023/08/23 09:05:50;;;;;;;5.63;3.33;;;;;;;40.17;25.23;98974.03;4824915;29;20223;-89
2023/08/23 09:08:16;;;;;;;5.78;3.63;;;;;;;40.22;24.94;98972.13;4828064;29;20204;-89
2023/08/23 09:10:42;;;;;;;6.43;3.72;;;;;;;40.27;25.47;98965.78;4824306;29;20550;-89
2023/08/23 09:13:07;;;;;;;7.40;4.15;;;;;;;40.09;24.54;98961.69;4812817;29;20554;-89
2023/08/23 09:15:32;;;;;;;5.50;3.80;;;;;;;40.36;25.71;98961.34;4825753;29;20193;-88
2023/08/23 09:17:59;;;;;;;6.50;3.70;;;;;;;40.73;24.44;98961.00;4809805;29;20270;-88
2023/08/23 09:20:25;;;;;;;9.25;3.67;;;;;;;40.77;24.31;98957.44;4818519;29;20188;-88
2023/08/23 09:22:55;;;;;;;5.43;3.95;;;;;;;40.63;24.44;98950.06;4832390;29;20542;-88
2023/08/23 09:25:23;;;;;;;9.18;3.58;;;;;;;40.62;24.44;98949.22;4830944;29;20185;-88
2023/08/23 09:27:49;;;;;;;7.72;4.45;;;;;;;40.45;24.72;98949.53;4832755;29;20653;-89
2023/08/23 09:30:15;;;;;;;6.35;3.63;;;;;;;40.52;24.34;98937.47;4826575;29;20209;-88
2023/08/23 09:32:44;;;;;;;5.53;3.38;;;;;;;40.79;23.52;98936.00;4852731;29;20196;-89
2023/08/23 09:35:11;;;;;;;4.10;3.13;;;;;;;41.19;23.13;98935.00;4835304;29;20200;-89
2023/08/23 09:37:42;;;;;;;6.05;4.03;;;;;;;41.26;23.76;98927.25;4838733;29;20189;-89
2023/08/23 09:40:24;;;;;;;4.93;3.47;;;;;;;41.39;23.33;98923.88;4823561;29;20212;-89
2023/08/23 09:42:52;;;;;;;5.95;3.58;;;;;;;41.54;23.17;98923.75;4819726;29;20189;-89
2023/08/23 09:45:21;;;;;;;5.53;3.30;;;;;;;41.83;22.59;98914.75;4828320;29;20267;-89
2023/08/23 09:47:52;;;;;;;4.70;3.42;;;;;;;41.36;22.87;98921.69;4830720;29;20232;-89
2023/08/23 09:50:20;;;;;;;4.72;2.75;;;;;;;41.39;22.37;98915.63;4832767;29;20173;-89
2023/08/23 09:52:50;;;;;;;5.18;3.38;;;;;;;41.64;22.08;98912.66;4842882;29;20220;-89
2023/08/23 09:55:18;;;;;;;7.47;3.53;;;;;;;41.37;22.07;98906.00;4832865;29;20173;-88
2023/08/23 09:57:44;;;;;;;7.07;3.88;;;;;;;41.23;22.97;98905.78;4840025;29;20186;-90
2023/08/23 10:00:11;;;;;;;6.28;3.72;;;;;;;41.02;22.46;98904.28;4827282;29;20253;-90
2023/08/23 10:02:38;;;;;;;7.78;3.00;;;;;;;40.84;22.42;98918.63;4827634;29;20197;-89
2023/08/23 10:05:06;;;;;;;3.50;2.45;;;;;;;41.00;21.23;98912.00;4823187;29;20212;-89
2023/08/23 10:07:35;;;;;;;5.07;3.05;;;;;;;40.99;21.70;98899.34;4826597;29;20198;-89
2023/08/23 10:10:03;;;;;;;3.80;2.30;;;;;;;40.75;21.94;98903.84;4830836;29;20241;-89
2023/08/23 10:12:30;;;;;;;3.90;2.80;;;;;;;41.08;21.57;98898.47;4813404;29;20190;-90
2023/08/23 10:14:58;;;;;;;11.70;3.30;;;;;;;40.94;21.75;98899.38;4820091;29;20193;-91
2023/08/23 10:17:24;;;;;;;6.78;3.60;;;;;;;40.76;22.53;98910.97;4819125;29;20195;-90
2023/08/23 10:19:52;;;;;;;4.57;2.67;;;;;;;40.89;20.84;98904.88;4823804;29;20206;-90
2023/08/23 10:22:19;;;;;;;4.20;2.70;;;;;;;40.90;21.06;98901.88;4823376;29;20185;-89
2023/08/23 10:24:50;;;;;;;6.15;3.10;;;;;;;41.53;20.98;98893.78;4823528;29;20181;-89
2023/08/23 10:27:17;;;;;;;5.80;3.00;;;;;;;41.60;20.65;98894.28;4823531;29;20192;-90
2023/08/23 10:29:50;;;;;;;8.23;3.17;;;;;;;41.28;20.93;98897.50;4834500;29;20197;-89
2023/08/23 10:32:17;;;;;;;4.93;3.03;;;;;;;41.38;21.37;98894.72;4841575;29;20170;-88
2023/08/23 10:34:44;;;;;;;4.88;2.97;;;;;;;41.60;21.02;98884.09;4842165;29;20659;-89
2023/08/23 10:37:17;;;;;;;5.68;3.22;;;;;;;41.51;21.47;98877.53;4843381;29;20189;-88
2023/08/23 10:39:51;;;;;;;5.68;2.97;;;;;;;41.61;20.99;98880.25;4843049;29;20224;-90
2023/08/23 10:42:19;;;;;;;4.75;2.97;;;;;;;41.53;21.76;98889.13;4835225;29;20235;-90
2023/08/23 10:45:00;;;;;;;4.60;3.10;;;;;;;41.41;21.61;98879.56;4825194;29;20208;-90
2023/08/23 10:47:25;;;;;;;7.32;3.33;;;;;;;41.29;21.55;98885.41;4824866;29;20181;-91
2023/08/23 10:49:53;;;;;;;8.30;3.92;;;;;;;41.43;21.30;98880.91;4824812;29;20185;-90
2023/08/23 10:52:22;;;;;;;4.70;3.13;;;;;;;41.82;21.27;98880.06;4820275;29;20196;-90
2023/08/23 10:54:48;;;;;;;6.88;3.95;;;;;;;42.01;21.34;98883.75;4826737;29;20185;-88
2023/08/23 10:57:17;;;;;;;7.50;3.72;;;;;;;41.78;21.48;98873.50;4842774;29;20180;-89
2023/08/23 10:59:43;;;;;;;4.90;3.60;;;;;;;41.78;21.44;98868.81;4843210;29;20204;-89
2023/08/23 11:02:09;;;;;;;7.53;4.05;;;;;;;41.65;22.20;98870.28;4843003;29;20245;-89
2023/08/23 11:04:35;;;;;;;5.72;3.55;;;;;;;41.46;22.03;98863.03;4842718;29;20184;-89
2023/08/23 11:07:01;;;;;;;4.53;3.00;;;;;;;41.53;21.83;98850.59;4826624;29;20201;-90
2023/08/23 11:09:28;;;;;;;4.78;3.33;;;;;;;41.62;21.68;98839.75;4841727;29;20191;-90
2023/08/23 11:11:55;;;;;;;4.78;3.33;;;;;;;42.10;21.72;98841.50;4824772;29;20543;-89
2023/08/23 11:14:22;;;;;;;4.93;3.10;;;;;;;42.21;21.37;98839.47;4824532;29;20186;-90
2023/08/23 11:16:49;;;;;;;6.00;4.22;;;;;;;41.90;21.24;98838.16;4808570;29;20185;-90
2023/08/23 11:19:15;;;;;;;7.25;4.60;;;;;;;41.20;21.78;98829.34;4824683;29;20202;-91
2023/08/23 11:21:42;;;;;;;5.75;3.97;;;;;;;40.98;22.00;98826.22;4824627;29;20631;-93
2023/08/23 11:24:07;;;;;;;9.35;4.78;;;;;;;40.74;22.76;98814.22;4824828;29;20193;-91
2023/08/23 11:26:35;;;;;;;6.63;3.65;;;;;;;41.39;22.14;98816.56;4823670;29;20176;-90
2023/08/23 11:29:03;;;;;;;5.30;3.60;;;;;;;41.37;21.65;98816.03;4842445;29;20181;-89